sensor_id;sensor_type;location;lat;lon;timestamp;P1;durP1;ratioP1;P2;durP2;ratioP2
59306;SDS011;47983;53.016;-2.260;2022-12-18T00:00:02;16.17;;;6.35;;
59306;SDS011;47983;53.016;-2.260;2022-12-18T00:02:39;8.80;;;4.18;;
59306;SDS011;47983;53.016;-2.260;2022-12-18T00:05:07;13.88;;;6.03;;
59306;SDS011;47983;53.016;-2.260;2022-12-18T00:07:35;13.20;;;5.55;;
59306;SDS011;47983;53.016;-2.260;2022-12-18T00:10:03;12.02;;;5.80;;
59306;SDS011;47983;53.016;-2.260;2022-12-18T00:12:32;11.45;;;5.68;;
59306;SDS011;47983;53.016;-2.260;2022-12-18T00:14:59;13.50;;;5.85;;
59306;SDS011;47983;53.016;-2.260;2022-12-18T00:17:27;11.90;;;6.03;;
59306;SDS011;47983;53.016;-2.260;2022-12-18T00:19:55;13.00;;;4.85;;
59306;SDS011;47983;53.016;-2.260;2022-12-18T00:22:22;14.90;;;5.35;;
59306;SDS011;47983;53.016;-2.260;2022-12-18T00:24:50;12.70;;;5.28;;
59306;SDS011;47983;53.016;-2.260;2022-12-18T00:27:18;9.68;;;5.03;;
59306;SDS011;47983;53.016;-2.260;2022-12-18T00:29:46;11.95;;;4.78;;
59306;SDS011;47983;53.016;-2.260;2022-12-18T00:32:15;10.55;;;4.22;;
59306;SDS011;47983;53.016;-2.260;2022-12-18T00:34:43;11.38;;;4.68;;
59306;SDS011;47983;53.016;-2.260;2022-12-18T00:37:10;11.93;;;4.53;;
59306;SDS011;47983;53.016;-2.260;2022-12-18T00:39:47;14.02;;;4.60;;
59306;SDS011;47983;53.016;-2.260;2022-12-18T00:42:15;6.93;;;4.00;;
59306;SDS011;47983;53.016;-2.260;2022-12-18T00:45:01;8.80;;;4.53;;
59306;SDS011;47983;53.016;-2.260;2022-12-18T00:47:38;7.78;;;4.20;;
59306;SDS011;47983;53.016;-2.260;2022-12-18T00:50:06;9.40;;;4.47;;
59306;SDS011;47983;53.016;-2.260;2022-12-18T00:52:34;9.32;;;4.65;;
59306;SDS011;47983;53.016;-2.260;2022-12-18T00:55:02;9.70;;;4.95;;
59306;SDS011;47983;53.016;-2.260;2022-12-18T00:57:32;11.20;;;5.10;;
59306;SDS011;47983;53.016;-2.260;2022-12-18T01:00:00;10.32;;;4.50;;
59306;SDS011;47983;53.016;-2.260;2022-12-18T01:02:28;9.68;;;5.00;;
59306;SDS011;47983;53.016;-2.260;2022-12-18T01:04:56;12.40;;;5.00;;
59306;SDS011;47983;53.016;-2.260;2022-12-18T01:07:24;10.30;;;4.70;;
59306;SDS011;47983;53.016;-2.260;2022-12-18T01:09:52;9.20;;;4.85;;
59306;SDS011;47983;53.016;-2.260;2022-12-18T01:12:23;6.75;;;4.20;;
59306;SDS011;47983;53.016;-2.260;2022-12-18T01:14:51;10.48;;;4.97;;
59306;SDS011;47983;53.016;-2.260;2022-12-18T01:17:21;9.05;;;4.88;;
59306;SDS011;47983;53.016;-2.260;2022-12-18T01:19:49;10.38;;;4.75;;
59306;SDS011;47983;53.016;-2.260;2022-12-18T01:22:17;8.65;;;4.03;;
59306;SDS011;47983;53.016;-2.260;2022-12-18T01:24:44;9.30;;;4.25;;
59306;SDS011;47983;53.016;-2.260;2022-12-18T01:27:12;14.73;;;4.25;;
59306;SDS011;47983;53.016;-2.260;2022-12-18T01:29:40;6.85;;;4.20;;
59306;SDS011;47983;53.016;-2.260;2022-12-18T02:27:54;12.75;;;6.25;;
59306;SDS011;47983;53.016;-2.260;2022-12-18T02:30:26;13.48;;;6.43;;
59306;SDS011;47983;53.016;-2.260;2022-12-18T02:32:58;13.60;;;6.57;;
59306;SDS011;47983;53.016;-2.260;2022-12-18T02:35:29;15.65;;;7.72;;
59306;SDS011;47983;53.016;-2.260;2022-12-18T02:37:59;13.30;;;6.18;;
59306;SDS011;47983;53.016;-2.260;2022-12-18T02:40:30;14.23;;;6.70;;
59306;SDS011;47983;53.016;-2.260;2022-12-18T02:43:09;13.68;;;6.18;;
59306;SDS011;47983;53.016;-2.260;2022-12-18T02:45:51;17.15;;;7.32;;
59306;SDS011;47983;53.016;-2.260;2022-12-18T02:48:40;14.43;;;6.65;;
59306;SDS011;47983;53.016;-2.260;2022-12-18T02:51:23;18.00;;;7.25;;
59306;SDS011;47983;53.016;-2.260;2022-12-18T02:54:00;18.58;;;7.38;;
59306;SDS011;47983;53.016;-2.260;2022-12-18T02:56:44;18.88;;;8.38;;
59306;SDS011;47983;53.016;-2.260;2022-12-18T02:59:22;17.38;;;7.28;;
59306;SDS011;47983;53.016;-2.260;2022-12-18T03:02:02;14.75;;;7.28;;
59306;SDS011;47983;53.016;-2.260;2022-12-18T03:04:55;16.35;;;7.50;;
59306;SDS011;47983;53.016;-2.260;2022-12-18T03:07:35;18.02;;;8.02;;
59306;SDS011;47983;53.016;-2.260;2022-12-18T03:10:11;15.82;;;7.90;;
59306;SDS011;47983;53.016;-2.260;2022-12-18T03:12:54;17.83;;;7.32;;
59306;SDS011;47983;53.016;-2.260;2022-12-18T03:15:45;12.77;;;7.53;;
59306;SDS011;47983;53.016;-2.260;2022-12-18T03:18:21;14.07;;;7.10;;
59306;SDS011;47983;53.016;-2.260;2022-12-18T03:20:55;13.95;;;6.85;;
59306;SDS011;47983;53.016;-2.260;2022-12-18T03:23:28;16.38;;;7.70;;
59306;SDS011;47983;53.016;-2.260;2022-12-18T03:26:05;16.30;;;7.28;;
59306;SDS011;47983;53.016;-2.260;2022-12-18T03:28:42;17.38;;;7.13;;
59306;SDS011;47983;53.016;-2.260;2022-12-18T03:31:22;16.73;;;7.20;;
59306;SDS011;47983;53.016;-2.260;2022-12-18T03:33:56;15.43;;;7.30;;
59306;SDS011;47983;53.016;-2.260;2022-12-18T03:36:36;21.08;;;7.72;;
59306;SDS011;47983;53.016;-2.260;2022-12-18T03:39:04;17.98;;;7.88;;
59306;SDS011;47983;53.016;-2.260;2022-12-18T03:41:47;15.10;;;7.68;;
59306;SDS011;47983;53.016;-2.260;2022-12-18T03:49:59;17.85;;;9.10;;
59306;SDS011;47983;53.016;-2.260;2022-12-18T03:52:48;20.85;;;7.78;;
59306;SDS011;47983;53.016;-2.260;2022-12-18T03:55:27;16.00;;;7.85;;
59306;SDS011;47983;53.016;-2.260;2022-12-18T03:58:03;26.27;;;8.30;;
59306;SDS011;47983;53.016;-2.260;2022-12-18T04:00:45;17.73;;;8.57;;
59306;SDS011;47983;53.016;-2.260;2022-12-18T04:03:16;14.15;;;7.65;;
59306;SDS011;47983;53.016;-2.260;2022-12-18T04:05:52;19.15;;;8.93;;
59306;SDS011;47983;53.016;-2.260;2022-12-18T04:08:26;18.25;;;8.77;;
59306;SDS011;47983;53.016;-2.260;2022-12-18T04:11:03;17.73;;;8.43;;
59306;SDS011;47983;53.016;-2.260;2022-12-18T04:13:34;27.92;;;11.52;;
59306;SDS011;47983;53.016;-2.260;2022-12-18T04:16:07;24.63;;;9.70;;
59306;SDS011;47983;53.016;-2.260;2022-12-18T04:18:39;24.30;;;9.85;;
59306;SDS011;47983;53.016;-2.260;2022-12-18T04:21:08;15.40;;;9.20;;
59306;SDS011;47983;53.016;-2.260;2022-12-18T04:23:37;17.30;;;9.73;;
59306;SDS011;47983;53.016;-2.260;2022-12-18T04:26:06;27.80;;;11.25;;
59306;SDS011;47983;53.016;-2.260;2022-12-18T04:28:49;19.45;;;9.60;;
59306;SDS011;47983;53.016;-2.260;2022-12-18T04:31:20;23.13;;;9.82;;
59306;SDS011;47983;53.016;-2.260;2022-12-18T04:33:49;22.70;;;10.02;;
59306;SDS011;47983;53.016;-2.260;2022-12-18T04:36:17;24.67;;;10.90;;
59306;SDS011;47983;53.016;-2.260;2022-12-18T04:38:46;26.70;;;10.43;;
59306;SDS011;47983;53.016;-2.260;2022-12-18T04:41:17;24.00;;;10.73;;
59306;SDS011;47983;53.016;-2.260;2022-12-18T04:43:47;27.55;;;10.98;;
59306;SDS011;47983;53.016;-2.260;2022-12-18T04:46:15;22.65;;;10.98;;
59306;SDS011;47983;53.016;-2.260;2022-12-18T04:48:45;26.85;;;10.75;;
59306;SDS011;47983;53.016;-2.260;2022-12-18T04:51:13;21.02;;;9.48;;
59306;SDS011;47983;53.016;-2.260;2022-12-18T04:53:41;25.25;;;11.07;;
59306;SDS011;47983;53.016;-2.260;2022-12-18T04:56:11;20.33;;;9.63;;
59306;SDS011;47983;53.016;-2.260;2022-12-18T04:58:41;26.85;;;11.63;;
59306;SDS011;47983;53.016;-2.260;2022-12-18T05:01:10;24.40;;;11.35;;
59306;SDS011;47983;53.016;-2.260;2022-12-18T05:06:07;29.40;;;13.18;;
59306;SDS011;47983;53.016;-2.260;2022-12-18T05:08:35;38.78;;;15.25;;
59306;SDS011;47983;53.016;-2.260;2022-12-18T05:11:09;32.42;;;13.90;;
59306;SDS011;47983;53.016;-2.260;2022-12-18T05:13:39;33.40;;;13.85;;
59306;SDS011;47983;53.016;-2.260;2022-12-18T05:16:07;34.28;;;13.25;;
59306;SDS011;47983;53.016;-2.260;2022-12-18T05:18:36;32.58;;;14.23;;
59306;SDS011;47983;53.016;-2.260;2022-12-18T05:21:04;37.03;;;14.05;;
59306;SDS011;47983;53.016;-2.260;2022-12-18T05:23:32;28.02;;;13.27;;
59306;SDS011;47983;53.016;-2.260;2022-12-18T05:26:01;38.42;;;14.60;;
59306;SDS011;47983;53.016;-2.260;2022-12-18T05:28:31;42.05;;;15.00;;
59306;SDS011;47983;53.016;-2.260;2022-12-18T05:33:31;37.83;;;15.00;;
59306;SDS011;47983;53.016;-2.260;2022-12-18T05:36:01;31.02;;;14.98;;
59306;SDS011;47983;53.016;-2.260;2022-12-18T05:38:30;45.38;;;15.27;;
59306;SDS011;47983;53.016;-2.260;2022-12-18T05:43:27;47.53;;;16.45;;
59306;SDS011;47983;53.016;-2.260;2022-12-18T05:45:55;38.63;;;15.18;;
59306;SDS011;47983;53.016;-2.260;2022-12-18T05:48:24;31.57;;;11.53;;
59306;SDS011;47983;53.016;-2.260;2022-12-18T05:50:52;43.60;;;15.95;;
59306;SDS011;47983;53.016;-2.260;2022-12-18T05:53:20;41.15;;;16.17;;
59306;SDS011;47983;53.016;-2.260;2022-12-18T05:55:48;41.40;;;14.82;;
59306;SDS011;47983;53.016;-2.260;2022-12-18T05:58:15;38.63;;;14.25;;
59306;SDS011;47983;53.016;-2.260;2022-12-18T06:00:44;46.60;;;16.17;;
59306;SDS011;47983;53.016;-2.260;2022-12-18T06:03:12;40.47;;;16.65;;
59306;SDS011;47983;53.016;-2.260;2022-12-18T06:05:42;37.30;;;15.35;;
59306;SDS011;47983;53.016;-2.260;2022-12-18T06:08:11;36.38;;;14.50;;
59306;SDS011;47983;53.016;-2.260;2022-12-18T06:10:40;46.72;;;16.25;;
59306;SDS011;47983;53.016;-2.260;2022-12-18T06:13:08;44.95;;;17.30;;
59306;SDS011;47983;53.016;-2.260;2022-12-18T06:15:36;46.72;;;16.85;;
59306;SDS011;47983;53.016;-2.260;2022-12-18T06:18:05;42.88;;;14.88;;
59306;SDS011;47983;53.016;-2.260;2022-12-18T06:20:33;39.80;;;17.40;;
59306;SDS011;47983;53.016;-2.260;2022-12-18T06:23:03;39.55;;;15.93;;
59306;SDS011;47983;53.016;-2.260;2022-12-18T06:25:31;42.15;;;17.17;;
59306;SDS011;47983;53.016;-2.260;2022-12-18T06:28:00;34.92;;;14.73;;
59306;SDS011;47983;53.016;-2.260;2022-12-18T06:30:27;34.83;;;14.00;;
59306;SDS011;47983;53.016;-2.260;2022-12-18T06:32:56;40.30;;;16.63;;
59306;SDS011;47983;53.016;-2.260;2022-12-18T06:35:25;47.25;;;15.90;;
59306;SDS011;47983;53.016;-2.260;2022-12-18T06:37:54;46.97;;;16.00;;
59306;SDS011;47983;53.016;-2.260;2022-12-18T06:40:26;45.63;;;17.40;;
59306;SDS011;47983;53.016;-2.260;2022-12-18T06:42:54;44.83;;;17.10;;
59306;SDS011;47983;53.016;-2.260;2022-12-18T06:45:31;44.80;;;16.55;;
59306;SDS011;47983;53.016;-2.260;2022-12-18T06:48:07;47.40;;;16.20;;
59306;SDS011;47983;53.016;-2.260;2022-12-18T06:53:17;49.60;;;17.52;;
59306;SDS011;47983;53.016;-2.260;2022-12-18T06:55:45;43.67;;;17.05;;
59306;SDS011;47983;53.016;-2.260;2022-12-18T06:58:13;46.05;;;17.42;;
59306;SDS011;47983;53.016;-2.260;2022-12-18T07:00:41;49.03;;;19.00;;
59306;SDS011;47983;53.016;-2.260;2022-12-18T07:03:09;50.00;;;18.45;;
59306;SDS011;47983;53.016;-2.260;2022-12-18T07:05:40;47.13;;;17.48;;
59306;SDS011;47983;53.016;-2.260;2022-12-18T07:08:08;49.70;;;17.52;;
59306;SDS011;47983;53.016;-2.260;2022-12-18T07:10:42;50.47;;;17.30;;
59306;SDS011;47983;53.016;-2.260;2022-12-18T07:13:16;41.13;;;16.10;;
59306;SDS011;47983;53.016;-2.260;2022-12-18T07:15:44;50.38;;;16.40;;
59306;SDS011;47983;53.016;-2.260;2022-12-18T07:18:12;51.40;;;17.75;;
59306;SDS011;47983;53.016;-2.260;2022-12-18T07:20:40;47.38;;;17.08;;
59306;SDS011;47983;53.016;-2.260;2022-12-18T07:23:08;40.30;;;15.73;;
59306;SDS011;47983;53.016;-2.260;2022-12-18T07:25:36;44.40;;;16.17;;
59306;SDS011;47983;53.016;-2.260;2022-12-18T07:28:04;51.08;;;18.20;;
59306;SDS011;47983;53.016;-2.260;2022-12-18T07:30:32;47.20;;;17.48;;
59306;SDS011;47983;53.016;-2.260;2022-12-18T07:33:00;52.53;;;19.67;;
59306;SDS011;47983;53.016;-2.260;2022-12-18T07:35:28;52.75;;;18.08;;
59306;SDS011;47983;53.016;-2.260;2022-12-18T07:37:56;46.78;;;19.10;;
59306;SDS011;47983;53.016;-2.260;2022-12-18T07:40:24;52.00;;;19.80;;
59306;SDS011;47983;53.016;-2.260;2022-12-18T07:42:51;49.90;;;18.80;;
59306;SDS011;47983;53.016;-2.260;2022-12-18T07:45:19;49.13;;;18.60;;
59306;SDS011;47983;53.016;-2.260;2022-12-18T07:47:49;47.65;;;18.05;;
59306;SDS011;47983;53.016;-2.260;2022-12-18T07:50:16;39.25;;;14.75;;
59306;SDS011;47983;53.016;-2.260;2022-12-18T07:52:44;44.50;;;16.27;;
59306;SDS011;47983;53.016;-2.260;2022-12-18T07:55:12;43.63;;;16.60;;
59306;SDS011;47983;53.016;-2.260;2022-12-18T07:57:40;48.42;;;18.55;;
59306;SDS011;47983;53.016;-2.260;2022-12-18T08:00:17;46.58;;;17.83;;
59306;SDS011;47983;53.016;-2.260;2022-12-18T08:02:47;42.40;;;16.42;;
59306;SDS011;47983;53.016;-2.260;2022-12-18T08:05:15;55.78;;;19.83;;
59306;SDS011;47983;53.016;-2.260;2022-12-18T08:07:43;47.10;;;18.52;;
59306;SDS011;47983;53.016;-2.260;2022-12-18T08:10:12;46.95;;;17.25;;
59306;SDS011;47983;53.016;-2.260;2022-12-18T08:12:40;46.60;;;17.85;;
59306;SDS011;47983;53.016;-2.260;2022-12-18T08:15:08;42.70;;;17.15;;
59306;SDS011;47983;53.016;-2.260;2022-12-18T08:17:36;47.15;;;19.17;;
59306;SDS011;47983;53.016;-2.260;2022-12-18T08:20:04;51.53;;;18.00;;
59306;SDS011;47983;53.016;-2.260;2022-12-18T08:22:33;52.93;;;19.97;;
59306;SDS011;47983;53.016;-2.260;2022-12-18T08:25:02;50.90;;;18.48;;
59306;SDS011;47983;53.016;-2.260;2022-12-18T08:27:31;49.83;;;18.93;;
59306;SDS011;47983;53.016;-2.260;2022-12-18T08:29:59;51.22;;;17.83;;
59306;SDS011;47983;53.016;-2.260;2022-12-18T08:32:27;49.90;;;19.23;;
59306;SDS011;47983;53.016;-2.260;2022-12-18T08:34:55;43.80;;;16.50;;
59306;SDS011;47983;53.016;-2.260;2022-12-18T08:37:23;46.10;;;18.40;;
59306;SDS011;47983;53.016;-2.260;2022-12-18T08:39:51;56.63;;;19.42;;
59306;SDS011;47983;53.016;-2.260;2022-12-18T08:42:19;43.72;;;16.02;;
59306;SDS011;47983;53.016;-2.260;2022-12-18T08:45:05;53.22;;;19.77;;
59306;SDS011;47983;53.016;-2.260;2022-12-18T08:47:34;53.40;;;18.90;;
59306;SDS011;47983;53.016;-2.260;2022-12-18T08:50:02;54.45;;;19.13;;
59306;SDS011;47983;53.016;-2.260;2022-12-18T08:52:31;46.47;;;16.77;;
59306;SDS011;47983;53.016;-2.260;2022-12-18T08:54:59;54.95;;;18.80;;
59306;SDS011;47983;53.016;-2.260;2022-12-18T08:57:27;47.85;;;18.70;;
59306;SDS011;47983;53.016;-2.260;2022-12-18T08:59:58;51.00;;;17.92;;
59306;SDS011;47983;53.016;-2.260;2022-12-18T09:02:28;62.75;;;18.05;;
59306;SDS011;47983;53.016;-2.260;2022-12-18T09:04:56;56.38;;;19.23;;
59306;SDS011;47983;53.016;-2.260;2022-12-18T09:07:27;45.05;;;17.75;;
59306;SDS011;47983;53.016;-2.260;2022-12-18T09:09:55;56.55;;;20.73;;
59306;SDS011;47983;53.016;-2.260;2022-12-18T09:12:24;56.78;;;18.52;;
59306;SDS011;47983;53.016;-2.260;2022-12-18T09:14:52;59.70;;;20.63;;
59306;SDS011;47983;53.016;-2.260;2022-12-18T09:17:28;48.60;;;18.00;;
59306;SDS011;47983;53.016;-2.260;2022-12-18T09:20:01;50.85;;;18.42;;
59306;SDS011;47983;53.016;-2.260;2022-12-18T09:22:28;58.05;;;20.45;;
59306;SDS011;47983;53.016;-2.260;2022-12-18T09:24:56;51.75;;;19.08;;
59306;SDS011;47983;53.016;-2.260;2022-12-18T09:27:24;54.53;;;17.30;;
59306;SDS011;47983;53.016;-2.260;2022-12-18T09:29:52;43.92;;;15.32;;
59306;SDS011;47983;53.016;-2.260;2022-12-18T09:32:19;49.40;;;17.40;;
59306;SDS011;47983;53.016;-2.260;2022-12-18T09:34:48;47.28;;;16.83;;
59306;SDS011;47983;53.016;-2.260;2022-12-18T09:37:16;50.38;;;15.85;;
59306;SDS011;47983;53.016;-2.260;2022-12-18T09:39:44;50.40;;;17.23;;
59306;SDS011;47983;53.016;-2.260;2022-12-18T09:42:16;49.22;;;17.33;;
59306;SDS011;47983;53.016;-2.260;2022-12-18T09:44:49;50.55;;;15.95;;
59306;SDS011;47983;53.016;-2.260;2022-12-18T09:47:38;46.70;;;16.70;;
59306;SDS011;47983;53.016;-2.260;2022-12-18T09:50:54;48.97;;;16.90;;
59306;SDS011;47983;53.016;-2.260;2022-12-18T09:52:59;37.13;;;14.95;;
59306;SDS011;47983;53.016;-2.260;2022-12-18T09:55:35;42.42;;;15.30;;
59306;SDS011;47983;53.016;-2.260;2022-12-18T09:58:10;48.78;;;16.17;;
59306;SDS011;47983;53.016;-2.260;2022-12-18T10:00:46;38.58;;;14.43;;
59306;SDS011;47983;53.016;-2.260;2022-12-18T10:03:14;44.83;;;15.98;;
59306;SDS011;47983;53.016;-2.260;2022-12-18T10:05:46;34.42;;;12.38;;
59306;SDS011;47983;53.016;-2.260;2022-12-18T10:12:23;44.63;;;17.02;;
59306;SDS011;47983;53.016;-2.260;2022-12-18T10:14:39;43.33;;;15.90;;
59306;SDS011;47983;53.016;-2.260;2022-12-18T10:17:14;40.17;;;14.85;;
59306;SDS011;47983;53.016;-2.260;2022-12-18T10:22:38;34.20;;;13.70;;
59306;SDS011;47983;53.016;-2.260;2022-12-18T10:27:57;42.67;;;14.18;;
59306;SDS011;47983;53.016;-2.260;2022-12-18T10:30:31;38.25;;;14.23;;
59306;SDS011;47983;53.016;-2.260;2022-12-18T10:33:02;44.20;;;14.40;;
59306;SDS011;47983;53.016;-2.260;2022-12-18T10:35:30;39.47;;;15.05;;
59306;SDS011;47983;53.016;-2.260;2022-12-18T10:37:59;33.85;;;13.18;;
59306;SDS011;47983;53.016;-2.260;2022-12-18T10:40:27;33.40;;;12.52;;
59306;SDS011;47983;53.016;-2.260;2022-12-18T10:43:09;28.50;;;11.82;;
59306;SDS011;47983;53.016;-2.260;2022-12-18T10:45:40;32.28;;;11.57;;
59306;SDS011;47983;53.016;-2.260;2022-12-18T10:48:18;34.85;;;13.40;;
59306;SDS011;47983;53.016;-2.260;2022-12-18T10:50:48;28.48;;;10.82;;
59306;SDS011;47983;53.016;-2.260;2022-12-18T10:53:39;35.30;;;12.52;;
59306;SDS011;47983;53.016;-2.260;2022-12-18T10:56:08;30.77;;;11.50;;
59306;SDS011;47983;53.016;-2.260;2022-12-18T10:58:39;32.05;;;13.23;;
59306;SDS011;47983;53.016;-2.260;2022-12-18T11:01:15;31.05;;;12.40;;
59306;SDS011;47983;53.016;-2.260;2022-12-18T11:03:46;37.20;;;12.18;;
59306;SDS011;47983;53.016;-2.260;2022-12-18T11:06:29;31.15;;;12.05;;
59306;SDS011;47983;53.016;-2.260;2022-12-18T11:08:57;25.83;;;11.52;;
59306;SDS011;47983;53.016;-2.260;2022-12-18T11:11:25;25.63;;;8.52;;
59306;SDS011;47983;53.016;-2.260;2022-12-18T11:14:02;32.08;;;13.38;;
59306;SDS011;47983;53.016;-2.260;2022-12-18T11:16:47;32.85;;;12.65;;
59306;SDS011;47983;53.016;-2.260;2022-12-18T11:19:37;28.58;;;12.02;;
59306;SDS011;47983;53.016;-2.260;2022-12-18T11:22:19;31.45;;;12.18;;
59306;SDS011;47983;53.016;-2.260;2022-12-18T11:25:05;26.77;;;10.68;;
59306;SDS011;47983;53.016;-2.260;2022-12-18T11:28:00;30.65;;;11.98;;
59306;SDS011;47983;53.016;-2.260;2022-12-18T11:30:31;33.33;;;11.68;;
59306;SDS011;47983;53.016;-2.260;2022-12-18T11:33:21;26.83;;;11.45;;
59306;SDS011;47983;53.016;-2.260;2022-12-18T11:35:53;31.33;;;13.02;;
59306;SDS011;47983;53.016;-2.260;2022-12-18T11:38:34;27.08;;;10.85;;
59306;SDS011;47983;53.016;-2.260;2022-12-18T11:44:22;28.33;;;11.55;;
59306;SDS011;47983;53.016;-2.260;2022-12-18T11:46:56;18.60;;;8.60;;
59306;SDS011;47983;53.016;-2.260;2022-12-18T11:49:30;24.15;;;10.80;;
59306;SDS011;47983;53.016;-2.260;2022-12-18T11:52:19;29.15;;;11.32;;
59306;SDS011;47983;53.016;-2.260;2022-12-18T11:54:57;25.17;;;11.10;;
59306;SDS011;47983;53.016;-2.260;2022-12-18T11:58:12;30.77;;;11.50;;
59306;SDS011;47983;53.016;-2.260;2022-12-18T12:00:35;27.25;;;10.95;;
59306;SDS011;47983;53.016;-2.260;2022-12-18T12:08:41;29.60;;;10.68;;
59306;SDS011;47983;53.016;-2.260;2022-12-18T12:22:35;29.33;;;10.15;;
59306;SDS011;47983;53.016;-2.260;2022-12-18T12:35:59;32.33;;;12.35;;
59306;SDS011;47983;53.016;-2.260;2022-12-18T12:38:57;26.02;;;10.63;;
59306;SDS011;47983;53.016;-2.260;2022-12-18T12:41:30;26.73;;;10.65;;
59306;SDS011;47983;53.016;-2.260;2022-12-18T12:44:29;30.13;;;11.57;;
59306;SDS011;47983;53.016;-2.260;2022-12-18T12:47:05;34.22;;;12.40;;
59306;SDS011;47983;53.016;-2.260;2022-12-18T12:49:42;30.00;;;11.27;;
59306;SDS011;47983;53.016;-2.260;2022-12-18T12:52:20;27.67;;;11.70;;
59306;SDS011;47983;53.016;-2.260;2022-12-18T12:55:00;30.17;;;12.18;;
59306;SDS011;47983;53.016;-2.260;2022-12-18T12:57:37;23.92;;;9.02;;
59306;SDS011;47983;53.016;-2.260;2022-12-18T13:02:48;24.35;;;12.20;;
59306;SDS011;47983;53.016;-2.260;2022-12-18T13:05:29;30.70;;;12.88;;
59306;SDS011;47983;53.016;-2.260;2022-12-18T13:08:09;30.80;;;12.45;;
59306;SDS011;47983;53.016;-2.260;2022-12-18T13:10:40;35.22;;;14.32;;
59306;SDS011;47983;53.016;-2.260;2022-12-18T13:13:10;25.08;;;11.85;;
59306;SDS011;47983;53.016;-2.260;2022-12-18T13:16:04;27.80;;;13.18;;
59306;SDS011;47983;53.016;-2.260;2022-12-18T13:18:33;33.75;;;13.35;;
59306;SDS011;47983;53.016;-2.260;2022-12-18T13:23:35;34.63;;;13.95;;
59306;SDS011;47983;53.016;-2.260;2022-12-18T13:28:53;28.02;;;12.25;;
59306;SDS011;47983;53.016;-2.260;2022-12-18T13:34:24;34.35;;;13.05;;
59306;SDS011;47983;53.016;-2.260;2022-12-18T13:36:56;30.30;;;11.93;;
59306;SDS011;47983;53.016;-2.260;2022-12-18T13:39:45;38.50;;;14.05;;
59306;SDS011;47983;53.016;-2.260;2022-12-18T13:48:05;29.45;;;12.90;;
59306;SDS011;47983;53.016;-2.260;2022-12-18T13:51:20;26.33;;;12.02;;
59306;SDS011;47983;53.016;-2.260;2022-12-18T13:54:00;31.67;;;12.20;;
59306;SDS011;47983;53.016;-2.260;2022-12-18T13:56:51;22.67;;;10.98;;
59306;SDS011;47983;53.016;-2.260;2022-12-18T13:59:20;35.13;;;14.43;;
59306;SDS011;47983;53.016;-2.260;2022-12-18T14:04:51;32.45;;;13.07;;
59306;SDS011;47983;53.016;-2.260;2022-12-18T14:07:24;32.28;;;12.65;;
59306;SDS011;47983;53.016;-2.260;2022-12-18T14:10:11;39.33;;;15.43;;
59306;SDS011;47983;53.016;-2.260;2022-12-18T14:13:03;32.30;;;13.00;;
59306;SDS011;47983;53.016;-2.260;2022-12-18T14:15:41;39.45;;;14.82;;
59306;SDS011;47983;53.016;-2.260;2022-12-18T14:18:21;34.13;;;13.23;;
59306;SDS011;47983;53.016;-2.260;2022-12-18T14:21:06;33.50;;;14.18;;
59306;SDS011;47983;53.016;-2.260;2022-12-18T14:23:42;33.47;;;13.70;;
59306;SDS011;47983;53.016;-2.260;2022-12-18T14:26:25;35.55;;;14.88;;
59306;SDS011;47983;53.016;-2.260;2022-12-18T14:29:00;36.75;;;14.85;;
59306;SDS011;47983;53.016;-2.260;2022-12-18T14:31:45;34.40;;;15.13;;
59306;SDS011;47983;53.016;-2.260;2022-12-18T14:34:17;30.25;;;12.50;;
59306;SDS011;47983;53.016;-2.260;2022-12-18T14:36:52;31.50;;;13.95;;
59306;SDS011;47983;53.016;-2.260;2022-12-18T14:39:22;40.92;;;13.65;;
59306;SDS011;47983;53.016;-2.260;2022-12-18T14:41:56;31.95;;;13.48;;
59306;SDS011;47983;53.016;-2.260;2022-12-18T14:44:23;31.05;;;13.77;;
59306;SDS011;47983;53.016;-2.260;2022-12-18T14:47:00;28.85;;;11.35;;
59306;SDS011;47983;53.016;-2.260;2022-12-18T14:49:34;34.25;;;12.60;;
59306;SDS011;47983;53.016;-2.260;2022-12-18T14:52:04;35.75;;;14.70;;
59306;SDS011;47983;53.016;-2.260;2022-12-18T14:54:45;28.45;;;12.75;;
59306;SDS011;47983;53.016;-2.260;2022-12-18T14:57:21;25.92;;;10.90;;
59306;SDS011;47983;53.016;-2.260;2022-12-18T14:59:51;31.67;;;12.73;;
59306;SDS011;47983;53.016;-2.260;2022-12-18T15:02:26;26.38;;;11.48;;
59306;SDS011;47983;53.016;-2.260;2022-12-18T15:05:00;33.33;;;12.68;;
59306;SDS011;47983;53.016;-2.260;2022-12-18T15:07:43;29.27;;;12.10;;
59306;SDS011;47983;53.016;-2.260;2022-12-18T15:10:32;31.75;;;13.25;;
59306;SDS011;47983;53.016;-2.260;2022-12-18T15:18:05;31.58;;;13.90;;
59306;SDS011;47983;53.016;-2.260;2022-12-18T15:20:51;33.40;;;14.50;;
59306;SDS011;47983;53.016;-2.260;2022-12-18T15:26:01;32.35;;;13.05;;
59306;SDS011;47983;53.016;-2.260;2022-12-18T15:28:39;33.72;;;14.00;;
59306;SDS011;47983;53.016;-2.260;2022-12-18T15:36:26;32.38;;;13.85;;
59306;SDS011;47983;53.016;-2.260;2022-12-18T15:38:57;30.05;;;12.60;;
59306;SDS011;47983;53.016;-2.260;2022-12-18T15:41:32;26.42;;;12.20;;
59306;SDS011;47983;53.016;-2.260;2022-12-18T15:44:02;28.70;;;12.07;;
59306;SDS011;47983;53.016;-2.260;2022-12-18T15:46:48;30.73;;;12.57;;
59306;SDS011;47983;53.016;-2.260;2022-12-18T15:49:21;33.28;;;13.63;;
59306;SDS011;47983;53.016;-2.260;2022-12-18T15:51:53;27.25;;;11.80;;
59306;SDS011;47983;53.016;-2.260;2022-12-18T15:54:24;31.63;;;12.65;;
59306;SDS011;47983;53.016;-2.260;2022-12-18T15:57:16;28.63;;;11.75;;
59306;SDS011;47983;53.016;-2.260;2022-12-18T15:59:55;25.67;;;10.80;;
59306;SDS011;47983;53.016;-2.260;2022-12-18T16:02:27;26.00;;;11.05;;
59306;SDS011;47983;53.016;-2.260;2022-12-18T16:04:56;26.95;;;11.77;;
59306;SDS011;47983;53.016;-2.260;2022-12-18T16:07:29;21.42;;;9.88;;
59306;SDS011;47983;53.016;-2.260;2022-12-18T16:09:57;22.23;;;10.18;;
59306;SDS011;47983;53.016;-2.260;2022-12-18T16:12:30;29.50;;;12.15;;
59306;SDS011;47983;53.016;-2.260;2022-12-18T16:14:58;24.20;;;11.48;;
59306;SDS011;47983;53.016;-2.260;2022-12-18T16:17:27;23.17;;;11.55;;
59306;SDS011;47983;53.016;-2.260;2022-12-18T16:19:56;27.23;;;10.10;;
59306;SDS011;47983;53.016;-2.260;2022-12-18T16:22:28;17.88;;;9.57;;
59306;SDS011;47983;53.016;-2.260;2022-12-18T16:24:56;21.70;;;10.55;;
59306;SDS011;47983;53.016;-2.260;2022-12-18T16:27:25;21.30;;;10.20;;
59306;SDS011;47983;53.016;-2.260;2022-12-18T16:29:53;21.90;;;10.57;;
59306;SDS011;47983;53.016;-2.260;2022-12-18T16:32:24;21.08;;;9.88;;
59306;SDS011;47983;53.016;-2.260;2022-12-18T16:34:59;18.67;;;9.05;;
59306;SDS011;47983;53.016;-2.260;2022-12-18T16:37:27;20.65;;;9.05;;
59306;SDS011;47983;53.016;-2.260;2022-12-18T16:39:55;22.23;;;9.57;;
59306;SDS011;47983;53.016;-2.260;2022-12-18T16:42:23;17.63;;;9.02;;
59306;SDS011;47983;53.016;-2.260;2022-12-18T16:44:52;15.77;;;8.30;;
59306;SDS011;47983;53.016;-2.260;2022-12-18T16:47:21;14.82;;;6.47;;
59306;SDS011;47983;53.016;-2.260;2022-12-18T16:49:49;15.30;;;7.75;;
59306;SDS011;47983;53.016;-2.260;2022-12-18T16:52:28;15.90;;;7.97;;
59306;SDS011;47983;53.016;-2.260;2022-12-18T16:54:58;18.27;;;7.28;;
59306;SDS011;47983;53.016;-2.260;2022-12-18T16:57:26;15.13;;;7.60;;
59306;SDS011;47983;53.016;-2.260;2022-12-18T16:59:55;15.88;;;7.85;;
59306;SDS011;47983;53.016;-2.260;2022-12-18T17:02:31;12.98;;;7.05;;
59306;SDS011;47983;53.016;-2.260;2022-12-18T17:04:59;12.82;;;6.40;;
59306;SDS011;47983;53.016;-2.260;2022-12-18T17:07:30;14.05;;;7.50;;
59306;SDS011;47983;53.016;-2.260;2022-12-18T17:09:58;11.50;;;6.57;;